sensor_id;sensor_type;location;lat;lon;timestamp;pressure;altitude;pressure_sealevel;temperature;humidity
9969;BME280;5025;48.890;9.278;2023-03-07T00:01:56;97670.59;;;3.16;63.62
9969;BME280;5025;48.890;9.278;2023-03-07T00:04:21;97673.88;;;3.18;63.59
9969;BME280;5025;48.890;9.278;2023-03-07T00:06:47;97667.28;;;3.20;63.53
9969;BME280;5025;48.890;9.278;2023-03-07T00:09:12;97670.38;;;3.17;63.44
9969;BME280;5025;48.890;9.278;2023-03-07T00:11:37;97672.44;;;3.15;63.53
9969;BME280;5025;48.890;9.278;2023-03-07T00:14:06;97678.59;;;3.16;63.52
9969;BME280;5025;48.890;9.278;2023-03-07T00:16:32;97674.91;;;3.17;63.34
9969;BME280;5025;48.890;9.278;2023-03-07T00:18:58;97678.19;;;3.19;63.53
9969;BME280;5025;48.890;9.278;2023-03-07T00:21:24;97670.16;;;3.19;63.37
9969;BME280;5025;48.890;9.278;2023-03-07T00:23:55;97669.75;;;3.22;63.33
9969;BME280;5025;48.890;9.278;2023-03-07T00:26:22;97670.38;;;3.24;63.37
9969;BME280;5025;48.890;9.278;2023-03-07T00:28:50;97659.50;;;3.26;63.26
9969;BME280;5025;48.890;9.278;2023-03-07T00:31:17;97661.34;;;3.25;63.31
9969;BME280;5025;48.890;9.278;2023-03-07T00:33:42;97653.34;;;3.25;63.36
9969;BME280;5025;48.890;9.278;2023-03-07T00:36:16;97653.13;;;3.27;63.31
9969;BME280;5025;48.890;9.278;2023-03-07T00:38:42;97656.22;;;3.30;63.25
9969;BME280;5025;48.890;9.278;2023-03-07T00:41:13;97657.44;;;3.28;63.26
9969;BME280;5025;48.890;9.278;2023-03-07T00:43:39;97656.22;;;3.30;63.16
9969;BME280;5025;48.890;9.278;2023-03-07T00:46:05;97644.47;;;3.31;63.23
9969;BME280;5025;48.890;9.278;2023-03-07T00:48:35;97643.28;;;3.27;63.34
9969;BME280;5025;48.890;9.278;2023-03-07T00:51:02;97647.78;;;3.27;63.34
9969;BME280;5025;48.890;9.278;2023-03-07T00:53:27;97640.41;;;3.22;63.38
9969;BME280;5025;48.890;9.278;2023-03-07T00:56:14;97634.25;;;3.21;63.48
9969;BME280;5025;48.890;9.278;2023-03-07T00:58:40;97624.41;;;3.22;63.46
9969;BME280;5025;48.890;9.278;2023-03-07T01:01:07;97631.56;;;3.28;63.34
9969;BME280;5025;48.890;9.278;2023-03-07T01:03:34;97626.44;;;3.27;63.20
9969;BME280;5025;48.890;9.278;2023-03-07T01:06:08;97630.75;;;3.28;63.24
9969;BME280;5025;48.890;9.278;2023-03-07T01:08:33;97624.63;;;3.27;63.13
9969;BME280;5025;48.890;9.278;2023-03-07T01:11:01;97632.41;;;3.29;63.21
9969;BME280;5025;48.890;9.278;2023-03-07T01:13:27;97628.91;;;3.28;63.33
9969;BME280;5025;48.890;9.278;2023-03-07T01:15:52;97621.94;;;3.27;63.08
9969;BME280;5025;48.890;9.278;2023-03-07T01:18:18;97623.19;;;3.25;63.17
9969;BME280;5025;48.890;9.278;2023-03-07T01:20:44;97630.16;;;3.26;63.24
9969;BME280;5025;48.890;9.278;2023-03-07T01:23:09;97630.16;;;3.26;63.40
9969;BME280;5025;48.890;9.278;2023-03-07T01:25:39;97628.72;;;3.23;63.29
9969;BME280;5025;48.890;9.278;2023-03-07T01:28:04;97623.59;;;3.21;63.25
9969;BME280;5025;48.890;9.278;2023-03-07T01:30:30;97624.81;;;3.19;63.46
9969;BME280;5025;48.890;9.278;2023-03-07T01:32:56;97623.19;;;3.18;63.37
9969;BME280;5025;48.890;9.278;2023-03-07T01:35:23;97617.03;;;3.17;63.30
9969;BME280;5025;48.890;9.278;2023-03-07T01:37:52;97623.81;;;3.20;63.39
9969;BME280;5025;48.890;9.278;2023-03-07T01:40:20;97612.13;;;3.21;63.36
9969;BME280;5025;48.890;9.278;2023-03-07T01:42:45;97613.72;;;3.22;63.18
9969;BME280;5025;48.890;9.278;2023-03-07T01:47:36;97611.28;;;3.20;63.20
9969;BME280;5025;48.890;9.278;2023-03-07T01:50:05;97604.09;;;3.21;63.06
9969;BME280;5025;48.890;9.278;2023-03-07T01:52:33;97604.72;;;3.23;63.14
9969;BME280;5025;48.890;9.278;2023-03-07T01:55:05;97605.13;;;3.20;63.14
9969;BME280;5025;48.890;9.278;2023-03-07T01:57:35;97601.84;;;3.25;63.13
9969;BME280;5025;48.890;9.278;2023-03-07T02:00:06;97598.75;;;3.28;63.02
9969;BME280;5025;48.890;9.278;2023-03-07T02:02:35;97595.25;;;3.27;62.97
9969;BME280;5025;48.890;9.278;2023-03-07T02:05:15;97597.31;;;3.25;62.82
9969;BME280;5025;48.890;9.278;2023-03-07T02:07:46;97584.59;;;3.27;62.99
9969;BME280;5025;48.890;9.278;2023-03-07T02:10:13;97581.91;;;3.27;62.94
9969;BME280;5025;48.890;9.278;2023-03-07T02:12:39;97579.03;;;3.29;62.78
9969;BME280;5025;48.890;9.278;2023-03-07T02:15:07;97577.41;;;3.28;62.83
9969;BME280;5025;48.890;9.278;2023-03-07T02:17:34;97574.72;;;3.28;62.76
9969;BME280;5025;48.890;9.278;2023-03-07T02:22:26;97574.75;;;3.21;62.93
9969;BME280;5025;48.890;9.278;2023-03-07T02:25:05;97574.75;;;3.21;62.73
9969;BME280;5025;48.890;9.278;2023-03-07T02:27:33;97581.34;;;3.18;62.78
9969;BME280;5025;48.890;9.278;2023-03-07T02:30:01;97569.66;;;3.13;62.68
9969;BME280;5025;48.890;9.278;2023-03-07T02:32:26;97581.75;;;3.15;62.82
9969;BME280;5025;48.890;9.278;2023-03-07T02:34:51;97574.19;;;3.05;62.18
9969;BME280;5025;48.890;9.278;2023-03-07T02:37:37;97591.47;;;2.90;62.08
9969;BME280;5025;48.890;9.278;2023-03-07T02:40:06;97564.81;;;2.83;62.06
9969;BME280;5025;48.890;9.278;2023-03-07T02:42:36;97565.84;;;2.82;62.04
9969;BME280;5025;48.890;9.278;2023-03-07T02:45:06;97570.19;;;2.76;62.29
9969;BME280;5025;48.890;9.278;2023-03-07T02:47:34;97559.28;;;2.84;62.09
9969;BME280;5025;48.890;9.278;2023-03-07T02:49:59;97559.66;;;2.88;61.89
9969;BME280;5025;48.890;9.278;2023-03-07T02:52:24;97552.69;;;2.94;61.61
9969;BME280;5025;48.890;9.278;2023-03-07T02:54:52;97546.13;;;2.96;61.71
9969;BME280;5025;48.890;9.278;2023-03-07T02:57:17;97542.00;;;3.00;61.73
9969;BME280;5025;48.890;9.278;2023-03-07T02:59:44;97533.78;;;3.02;61.58
9969;BME280;5025;48.890;9.278;2023-03-07T03:02:09;97538.47;;;3.07;61.55
9969;BME280;5025;48.890;9.278;2023-03-07T03:04:34;97530.91;;;3.10;61.27
9969;BME280;5025;48.890;9.278;2023-03-07T03:06:59;97523.88;;;3.16;61.27
9969;BME280;5025;48.890;9.278;2023-03-07T03:09:25;97530.03;;;3.16;61.00
9969;BME280;5025;48.890;9.278;2023-03-07T03:11:50;97526.16;;;3.12;61.04
9969;BME280;5025;48.890;9.278;2023-03-07T03:14:15;97525.94;;;3.14;61.09
9969;BME280;5025;48.890;9.278;2023-03-07T03:16:40;97525.13;;;3.13;61.06
9969;BME280;5025;48.890;9.278;2023-03-07T03:19:06;97523.53;;;3.05;60.90
9969;BME280;5025;48.890;9.278;2023-03-07T03:21:32;97521.28;;;3.02;61.15
9969;BME280;5025;48.890;9.278;2023-03-07T03:23:57;97530.09;;;3.03;60.98
9969;BME280;5025;48.890;9.278;2023-03-07T03:26:22;97533.78;;;3.02;60.93
9969;BME280;5025;48.890;9.278;2023-03-07T03:28:48;97526.00;;;3.00;60.84
9969;BME280;5025;48.890;9.278;2023-03-07T03:31:13;97524.59;;;2.98;60.49
9969;BME280;5025;48.890;9.278;2023-03-07T03:33:42;97526.41;;;2.97;60.77
9969;BME280;5025;48.890;9.278;2023-03-07T03:36:11;97525.59;;;2.97;60.82
9969;BME280;5025;48.890;9.278;2023-03-07T03:38:36;97520.44;;;3.02;60.82
9969;BME280;5025;48.890;9.278;2023-03-07T03:41:06;97518.63;;;3.02;60.67
9969;BME280;5025;48.890;9.278;2023-03-07T03:43:33;97530.69;;;3.05;60.68
9969;BME280;5025;48.890;9.278;2023-03-07T03:45:58;97520.44;;;3.09;60.62
9969;BME280;5025;48.890;9.278;2023-03-07T03:48:25;97521.03;;;3.11;60.57
9969;BME280;5025;48.890;9.278;2023-03-07T03:50:59;97523.88;;;3.16;60.59
9969;BME280;5025;48.890;9.278;2023-03-07T03:53:24;97521.00;;;3.17;60.52
9969;BME280;5025;48.890;9.278;2023-03-07T03:55:49;97516.94;;;3.15;60.41
9969;BME280;5025;48.890;9.278;2023-03-07T03:58:15;97516.09;;;3.14;60.31
9969;BME280;5025;48.890;9.278;2023-03-07T04:00:40;97507.50;;;3.12;60.34
9969;BME280;5025;48.890;9.278;2023-03-07T04:03:05;97510.16;;;3.12;60.51
9969;BME280;5025;48.890;9.278;2023-03-07T04:05:34;97511.59;;;3.15;60.39
9969;BME280;5025;48.890;9.278;2023-03-07T04:07:59;97514.47;;;3.13;60.38
9969;BME280;5025;48.890;9.278;2023-03-07T04:10:24;97515.44;;;3.19;60.17
9969;BME280;5025;48.890;9.278;2023-03-07T04:12:50;97502.94;;;3.19;60.32
9969;BME280;5025;48.890;9.278;2023-03-07T04:15:15;97500.28;;;3.19;60.60
9969;BME280;5025;48.890;9.278;2023-03-07T04:17:41;97495.97;;;3.18;60.43
9969;BME280;5025;48.890;9.278;2023-03-07T04:20:07;97500.66;;;3.23;60.29
9969;BME280;5025;48.890;9.278;2023-03-07T04:22:38;97493.03;;;3.27;60.24
9969;BME280;5025;48.890;9.278;2023-03-07T04:25:03;97491.00;;;3.29;60.26
9969;BME280;5025;48.890;9.278;2023-03-07T04:27:29;97491.44;;;3.26;60.10
9969;BME280;5025;48.890;9.278;2023-03-07T04:29:54;97494.31;;;3.24;60.33
9969;BME280;5025;48.890;9.278;2023-03-07T04:32:20;97487.75;;;3.20;60.33
9969;BME280;5025;48.890;9.278;2023-03-07T04:34:45;97494.72;;;3.21;60.31
9969;BME280;5025;48.890;9.278;2023-03-07T04:37:10;97492.28;;;3.19;60.44
9969;BME280;5025;48.890;9.278;2023-03-07T04:39:36;97492.06;;;3.21;60.43
9969;BME280;5025;48.890;9.278;2023-03-07T04:42:01;97493.47;;;3.23;60.57
9969;BME280;5025;48.890;9.278;2023-03-07T04:44:26;97483.63;;;3.24;60.62
9969;BME280;5025;48.890;9.278;2023-03-07T04:46:51;97480.53;;;3.27;60.43
9969;BME280;5025;48.890;9.278;2023-03-07T04:49:17;97472.34;;;3.22;60.32
9969;BME280;5025;48.890;9.278;2023-03-07T04:51:42;97475.44;;;3.19;60.64
9969;BME280;5025;48.890;9.278;2023-03-07T04:54:07;97478.72;;;3.21;60.86
9969;BME280;5025;48.890;9.278;2023-03-07T04:56:33;97479.53;;;3.21;60.78
9969;BME280;5025;48.890;9.278;2023-03-07T04:58:58;97474.59;;;3.25;60.81
9969;BME280;5025;48.890;9.278;2023-03-07T05:01:23;97465.19;;;3.22;60.91
9969;BME280;5025;48.890;9.278;2023-03-07T05:03:48;97473.97;;;3.23;60.93
9969;BME280;5025;48.890;9.278;2023-03-07T05:06:14;97465.38;;;3.21;61.15
9969;BME280;5025;48.890;9.278;2023-03-07T05:08:40;97459.63;;;3.24;60.97
9969;BME280;5025;48.890;9.278;2023-03-07T05:11:05;97462.28;;;3.24;60.92
9969;BME280;5025;48.890;9.278;2023-03-07T05:13:31;97463.31;;;3.23;61.01
9969;BME280;5025;48.890;9.278;2023-03-07T05:15:57;97474.19;;;3.21;61.13
9969;BME280;5025;48.890;9.278;2023-03-07T05:18:23;97465.19;;;3.16;61.12
9969;BME280;5025;48.890;9.278;2023-03-07T05:20:48;97464.00;;;3.12;61.32
9969;BME280;5025;48.890;9.278;2023-03-07T05:23:15;97457.81;;;3.11;61.36
9969;BME280;5025;48.890;9.278;2023-03-07T05:25:40;97454.94;;;3.13;61.44
9969;BME280;5025;48.890;9.278;2023-03-07T05:28:06;97449.81;;;3.18;61.14
9969;BME280;5025;48.890;9.278;2023-03-07T05:30:31;97455.16;;;3.18;61.17
9969;BME280;5025;48.890;9.278;2023-03-07T05:32:56;97443.84;;;3.16;61.21
9969;BME280;5025;48.890;9.278;2023-03-07T05:35:21;97443.03;;;3.15;61.25
9969;BME280;5025;48.890;9.278;2023-03-07T05:37:49;97440.16;;;3.17;61.20
9969;BME280;5025;48.890;9.278;2023-03-07T05:40:15;97452.47;;;3.18;61.27
9969;BME280;5025;48.890;9.278;2023-03-07T05:42:40;97446.53;;;3.16;61.06
9969;BME280;5025;48.890;9.278;2023-03-07T05:45:06;97453.50;;;3.17;60.99
9969;BME280;5025;48.890;9.278;2023-03-07T05:47:31;97460.28;;;3.19;61.09
9969;BME280;5025;48.890;9.278;2023-03-07T05:49:57;97444.63;;;3.23;60.98
9969;BME280;5025;48.890;9.278;2023-03-07T05:52:22;97447.31;;;3.23;61.04
9969;BME280;5025;48.890;9.278;2023-03-07T05:54:47;97452.47;;;3.18;61.01
9969;BME280;5025;48.890;9.278;2023-03-07T05:57:13;97452.06;;;3.21;60.97
9969;BME280;5025;48.890;9.278;2023-03-07T05:59:38;97450.41;;;3.20;61.03
9969;BME280;5025;48.890;9.278;2023-03-07T06:02:03;97436.03;;;3.21;61.13
9969;BME280;5025;48.890;9.278;2023-03-07T06:04:28;97443.00;;;3.22;60.95
9969;BME280;5025;48.890;9.278;2023-03-07T06:06:54;97439.53;;;3.21;60.90
9969;BME280;5025;48.890;9.278;2023-03-07T06:09:19;97440.53;;;3.20;60.80
9969;BME280;5025;48.890;9.278;2023-03-07T06:11:46;97435.19;;;3.27;60.81
9969;BME280;5025;48.890;9.278;2023-03-07T06:14:11;97428.63;;;3.23;60.74
9969;BME280;5025;48.890;9.278;2023-03-07T06:16:36;97432.53;;;3.27;60.58
9969;BME280;5025;48.890;9.278;2023-03-07T06:19:02;97428.59;;;3.30;60.50
9969;BME280;5025;48.890;9.278;2023-03-07T06:21:27;97424.50;;;3.27;60.59
9969;BME280;5025;48.890;9.278;2023-03-07T06:23:52;97428.41;;;3.25;60.70
9969;BME280;5025;48.890;9.278;2023-03-07T06:26:17;97421.66;;;3.22;60.61
9969;BME280;5025;48.890;9.278;2023-03-07T06:28:43;97419.19;;;3.27;60.46
9969;BME280;5025;48.890;9.278;2023-03-07T06:31:09;97425.69;;;3.31;60.35
9969;BME280;5025;48.890;9.278;2023-03-07T06:33:35;97429.41;;;3.30;60.25
9969;BME280;5025;48.890;9.278;2023-03-07T06:36:04;97426.53;;;3.32;60.19
9969;BME280;5025;48.890;9.278;2023-03-07T06:38:30;97427.78;;;3.29;60.07
9969;BME280;5025;48.890;9.278;2023-03-07T06:40:56;97437.22;;;3.32;60.13
9969;BME280;5025;48.890;9.278;2023-03-07T06:43:21;97425.25;;;3.34;59.91
9969;BME280;5025;48.890;9.278;2023-03-07T06:45:46;97434.31;;;3.33;59.79
9969;BME280;5025;48.890;9.278;2023-03-07T06:48:12;97428.59;;;3.30;59.61
9969;BME280;5025;48.890;9.278;2023-03-07T06:50:37;97430.38;;;3.36;59.70
9969;BME280;5025;48.890;9.278;2023-03-07T06:53:02;97428.38;;;3.31;59.63
9969;BME280;5025;48.890;9.278;2023-03-07T06:55:28;97435.94;;;3.34;59.53
9969;BME280;5025;48.890;9.278;2023-03-07T06:57:53;97436.78;;;3.35;59.58
9969;BME280;5025;48.890;9.278;2023-03-07T07:00:18;97431.81;;;3.38;59.59
9969;BME280;5025;48.890;9.278;2023-03-07T07:02:44;97438.59;;;3.41;59.45
9969;BME280;5025;48.890;9.278;2023-03-07T07:05:09;97440.41;;;3.40;59.45
9969;BME280;5025;48.890;9.278;2023-03-07T07:07:34;97438.59;;;3.34;59.25
9969;BME280;5025;48.890;9.278;2023-03-07T07:10:00;97431.03;;;3.31;59.53
9969;BME280;5025;48.890;9.278;2023-03-07T07:12:26;97426.97;;;3.29;59.41
9969;BME280;5025;48.890;9.278;2023-03-07T07:14:51;97428.59;;;3.30;59.29
9969;BME280;5025;48.890;9.278;2023-03-07T07:17:16;97428.59;;;3.30;59.46
9969;BME280;5025;48.890;9.278;2023-03-07T07:19:41;97428.38;;;3.31;59.33
9969;BME280;5025;48.890;9.278;2023-03-07T07:22:07;97426.91;;;3.35;59.44
9969;BME280;5025;48.890;9.278;2023-03-07T07:24:39;97427.91;;;3.41;59.34
9969;BME280;5025;48.890;9.278;2023-03-07T07:27:05;97422.50;;;3.48;59.26
9969;BME280;5025;48.890;9.278;2023-03-07T07:29:30;97424.38;;;3.47;59.25
9969;BME280;5025;48.890;9.278;2023-03-07T07:31:55;97436.28;;;3.45;59.14
9969;BME280;5025;48.890;9.278;2023-03-07T07:34:21;97430.94;;;3.45;59.18
9969;BME280;5025;48.890;9.278;2023-03-07T07:36:46;97427.56;;;3.56;59.02
9969;BME280;5025;48.890;9.278;2023-03-07T07:39:14;97434.94;;;3.61;58.78
9969;BME280;5025;48.890;9.278;2023-03-07T07:41:39;97427.09;;;3.66;58.94
9969;BME280;5025;48.890;9.278;2023-03-07T07:44:05;97425.03;;;3.68;58.88
9969;BME280;5025;48.890;9.278;2023-03-07T07:46:30;97427.09;;;3.66;58.69
9969;BME280;5025;48.890;9.278;2023-03-07T07:48:55;97414.34;;;3.68;58.78
9969;BME280;5025;48.890;9.278;2023-03-07T07:51:21;97425.53;;;3.58;59.17
9969;BME280;5025;48.890;9.278;2023-03-07T07:53:46;97431.25;;;3.62;59.29
9969;BME280;5025;48.890;9.278;2023-03-07T07:56:11;97415.56;;;3.72;58.81
9969;BME280;5025;48.890;9.278;2023-03-07T07:58:37;97419.59;;;3.81;58.62
9969;BME280;5025;48.890;9.278;2023-03-07T08:01:19;97416.91;;;3.81;58.55
9969;BME280;5025;48.890;9.278;2023-03-07T08:03:45;97421.75;;;3.91;58.26
9969;BME280;5025;48.890;9.278;2023-03-07T08:06:11;97428.44;;;4.00;57.85
9969;BME280;5025;48.890;9.278;2023-03-07T08:08:36;97420.34;;;4.07;57.78
9969;BME280;5025;48.890;9.278;2023-03-07T08:11:02;97409.13;;;3.98;57.68
9969;BME280;5025;48.890;9.278;2023-03-07T08:13:28;97407.50;;;3.97;57.79
9969;BME280;5025;48.890;9.278;2023-03-07T08:15:53;97409.44;;;4.08;57.54
9969;BME280;5025;48.890;9.278;2023-03-07T08:18:18;97411.03;;;4.16;57.20
9969;BME280;5025;48.890;9.278;2023-03-07T08:20:44;97416.13;;;4.18;57.07
9969;BME280;5025;48.890;9.278;2023-03-07T08:23:09;97412.88;;;4.16;56.71
9969;BME280;5025;48.890;9.278;2023-03-07T08:25:34;97403.59;;;4.18;56.36
9969;BME280;5025;48.890;9.278;2023-03-07T08:28:00;97420.50;;;4.12;56.79
9969;BME280;5025;48.890;9.278;2023-03-07T08:30:28;97405.78;;;4.03;56.85
9969;BME280;5025;48.890;9.278;2023-03-07T08:32:55;97420.91;;;4.16;56.68
9969;BME280;5025;48.890;9.278;2023-03-07T08:35:21;97401.09;;;4.23;56.42
9969;BME280;5025;48.890;9.278;2023-03-07T08:37:46;97406.56;;;4.28;55.96
9969;BME280;5025;48.890;9.278;2023-03-07T08:40:14;97408.22;;;4.29;55.89
9969;BME280;5025;48.890;9.278;2023-03-07T08:42:40;97401.16;;;4.35;56.03
9969;BME280;5025;48.890;9.278;2023-03-07T08:45:06;97397.88;;;4.33;55.13
9969;BME280;5025;48.890;9.278;2023-03-07T08:47:31;97391.06;;;4.37;54.93
9969;BME280;5025;48.890;9.278;2023-03-07T08:49:56;97390.63;;;4.40;54.74
9969;BME280;5025;48.890;9.278;2023-03-07T08:52:21;97398.78;;;4.45;54.77
9969;BME280;5025;48.890;9.278;2023-03-07T08:54:47;97393.50;;;4.57;54.92
9969;BME280;5025;48.890;9.278;2023-03-07T08:57:12;97401.66;;;4.62;54.53
9969;BME280;5025;48.890;9.278;2023-03-07T08:59:37;97389.94;;;4.63;54.59
9969;BME280;5025;48.890;9.278;2023-03-07T09:02:03;97386.44;;;4.63;54.72
9969;BME280;5025;48.890;9.278;2023-03-07T09:04:28;97381.38;;;4.73;54.86
9969;BME280;5025;48.890;9.278;2023-03-07T09:06:53;97399.72;;;4.70;54.16
9969;BME280;5025;48.890;9.278;2023-03-07T09:09:20;97392.88;;;4.74;53.56
9969;BME280;5025;48.890;9.278;2023-03-07T09:11:46;97383.72;;;4.81;53.46
9969;BME280;5025;48.890;9.278;2023-03-07T09:14:11;97383.66;;;4.88;54.04
9969;BME280;5025;48.890;9.278;2023-03-07T09:16:36;97387.88;;;4.96;53.67
9969;BME280;5025;48.890;9.278;2023-03-07T09:19:02;97382.97;;;4.93;52.99
9969;BME280;5025;48.890;9.278;2023-03-07T09:21:27;97387.47;;;4.92;52.23
9969;BME280;5025;48.890;9.278;2023-03-07T09:23:53;97368.41;;;4.89;52.85
9969;BME280;5025;48.890;9.278;2023-03-07T09:26:19;97363.19;;;4.94;53.16
9969;BME280;5025;48.890;9.278;2023-03-07T09:28:44;97360.69;;;5.11;52.74
9969;BME280;5025;48.890;9.278;2023-03-07T09:31:12;97375.25;;;5.15;52.08
9969;BME280;5025;48.890;9.278;2023-03-07T09:33:39;97361.63;;;5.16;51.61
9969;BME280;5025;48.890;9.278;2023-03-07T09:36:06;97366.75;;;5.30;51.25
9969;BME280;5025;48.890;9.278;2023-03-07T09:38:32;97367.25;;;5.27;48.98
9969;BME280;5025;48.890;9.278;2023-03-07T09:43:56;97387.94;;;5.19;49.35
9969;BME280;5025;48.890;9.278;2023-03-07T09:49:24;97365.72;;;5.31;48.02
9969;BME280;5025;48.890;9.278;2023-03-07T09:51:57;97373.88;;;5.36;48.06
9969;BME280;5025;48.890;9.278;2023-03-07T09:54:36;97364.09;;;5.30;46.75
9969;BME280;5025;48.890;9.278;2023-03-07T09:57:04;97364.88;;;5.18;47.42
9969;BME280;5025;48.890;9.278;2023-03-07T09:59:38;97355.38;;;5.23;47.91
9969;BME280;5025;48.890;9.278;2023-03-07T10:02:17;97370.22;;;5.18;45.78
9969;BME280;5025;48.890;9.278;2023-03-07T10:07:22;97369.38;;;5.06;46.64
9969;BME280;5025;48.890;9.278;2023-03-07T10:09:51;97362.28;;;5.00;45.63
9969;BME280;5025;48.890;9.278;2023-03-07T10:13:05;97356.22;;;4.93;46.75
9969;BME280;5025;48.890;9.278;2023-03-07T10:18:46;97351.31;;;4.90;46.76
9969;BME280;5025;48.890;9.278;2023-03-07T10:21:53;97358.06;;;4.92;47.29
9969;BME280;5025;48.890;9.278;2023-03-07T10:27:12;97354.22;;;4.88;47.71
9969;BME280;5025;48.890;9.278;2023-03-07T10:29:49;97348.88;;;4.88;47.45
9969;BME280;5025;48.890;9.278;2023-03-07T10:32:20;97342.56;;;4.82;47.41
9969;BME280;5025;48.890;9.278;2023-03-07T10:34:52;97348.28;;;4.86;47.83
9969;BME280;5025;48.890;9.278;2023-03-07T10:37:20;97355.94;;;4.82;46.75
9969;BME280;5025;48.890;9.278;2023-03-07T10:39:54;97343.88;;;4.92;46.90
9969;BME280;5025;48.890;9.278;2023-03-07T10:42:22;97344.78;;;4.85;46.92
9969;BME280;5025;48.890;9.278;2023-03-07T10:44:49;97331.66;;;4.84;47.10
9969;BME280;5025;48.890;9.278;2023-03-07T10:47:21;97335.69;;;4.75;47.73
9969;BME280;5025;48.890;9.278;2023-03-07T10:49:50;97337.56;;;4.74;47.76
9969;BME280;5025;48.890;9.278;2023-03-07T10:52:38;97334.19;;;4.79;47.91
9969;BME280;5025;48.890;9.278;2023-03-07T10:55:41;97340.47;;;4.84;48.07
9969;BME280;5025;48.890;9.278;2023-03-07T10:58:23;97329.41;;;4.81;47.87
9969;BME280;5025;48.890;9.278;2023-03-07T11:01:14;97333.59;;;4.77;48.17
9969;BME280;5025;48.890;9.278;2023-03-07T11:03:51;97326.53;;;4.82;48.45
9969;BME280;5025;48.890;9.278;2023-03-07T11:09:22;97329.16;;;4.71;48.98
9969;BME280;5025;48.890;9.278;2023-03-07T11:11:54;97321.34;;;4.69;49.03
9969;BME280;5025;48.890;9.278;2023-03-07T11:14:20;97326.00;;;4.74;49.21
9969;BME280;5025;48.890;9.278;2023-03-07T11:16:51;97314.41;;;4.80;48.95
9969;BME280;5025;48.890;9.278;2023-03-07T11:19:44;97314.41;;;4.80;49.08
9969;BME280;5025;48.890;9.278;2023-03-07T11:22:31;97312.41;;;4.75;48.84
9969;BME280;5025;48.890;9.278;2023-03-07T11:27:55;97324.94;;;4.63;48.64
9969;BME280;5025;48.890;9.278;2023-03-07T11:33:02;97310.03;;;4.55;48.25
9969;BME280;5025;48.890;9.278;2023-03-07T11:38:30;97329.06;;;4.47;47.48
9969;BME280;5025;48.890;9.278;2023-03-07T11:41:04;97318.38;;;4.47;47.12
9969;BME280;5025;48.890;9.278;2023-03-07T11:55:14;97311.88;;;4.55;46.74
9969;BME280;5025;48.890;9.278;2023-03-07T11:58:00;97286.78;;;4.56;46.50
9969;BME280;5025;48.890;9.278;2023-03-07T12:05:39;97280.78;;;4.72;46.35
9969;BME280;5025;48.890;9.278;2023-03-07T12:24:21;97273.78;;;5.13;45.54
9969;BME280;5025;48.890;9.278;2023-03-07T12:26:59;97263.78;;;5.20;45.65
9969;BME280;5025;48.890;9.278;2023-03-07T12:29:39;97258.44;;;5.20;44.91
9969;BME280;5025;48.890;9.278;2023-03-07T12:32:13;97253.31;;;5.19;45.38
9969;BME280;5025;48.890;9.278;2023-03-07T12:34:43;97244.22;;;5.20;45.09
9969;BME280;5025;48.890;9.278;2023-03-07T12:37:15;97239.94;;;5.07;44.61
9969;BME280;5025;48.890;9.278;2023-03-07T12:39:47;97237.47;;;5.06;45.31
9969;BME280;5025;48.890;9.278;2023-03-07T12:53:16;97200.94;;;5.35;44.69
9969;BME280;5025;48.890;9.278;2023-03-07T12:55:53;97215.72;;;5.49;44.59
9969;BME280;5025;48.890;9.278;2023-03-07T12:58:33;97205.69;;;5.56;43.85
9969;BME280;5025;48.890;9.278;2023-03-07T13:01:08;97203.72;;;5.52;43.53
9969;BME280;5025;48.890;9.278;2023-03-07T13:03:43;97207.31;;;5.57;44.29
9969;BME280;5025;48.890;9.278;2023-03-07T13:06:16;97194.47;;;5.71;43.76
9969;BME280;5025;48.890;9.278;2023-03-07T13:08:46;97186.50;;;5.88;43.50
9969;BME280;5025;48.890;9.278;2023-03-07T13:11:20;97178.59;;;5.93;43.41
9969;BME280;5025;48.890;9.278;2023-03-07T13:21:58;97168.81;;;5.87;43.11
9969;BME280;5025;48.890;9.278;2023-03-07T13:24:43;97177.09;;;5.86;43.30
9969;BME280;5025;48.890;9.278;2023-03-07T13:27:15;97161.03;;;5.86;43.05
9969;BME280;5025;48.890;9.278;2023-03-07T13:30:24;97174.19;;;5.87;43.38
9969;BME280;5025;48.890;9.278;2023-03-07T13:45:55;97165.97;;;5.65;44.01
9969;BME280;5025;48.890;9.278;2023-03-07T14:00:59;97175.06;;;5.64;44.02
9969;BME280;5025;48.890;9.278;2023-03-07T14:03:29;97171.91;;;5.67;44.50
9969;BME280;5025;48.890;9.278;2023-03-07T14:05:58;97164.41;;;5.81;44.36
9969;BME280;5025;48.890;9.278;2023-03-07T14:08:27;97165.53;;;5.85;44.07
9969;BME280;5025;48.890;9.278;2023-03-07T14:10:54;97171.84;;;5.79;43.75
9969;BME280;5025;48.890;9.278;2023-03-07T14:26:55;97187.56;;;5.87;43.56
9969;BME280;5025;48.890;9.278;2023-03-07T14:29:23;97184.78;;;5.82;43.57
9969;BME280;5025;48.890;9.278;2023-03-07T14:31:51;97188.88;;;5.73;43.67
9969;BME280;5025;48.890;9.278;2023-03-07T14:36:48;97192.47;;;5.79;44.17
9969;BME280;5025;48.890;9.278;2023-03-07T14:39:14;97189.66;;;5.85;44.04
9969;BME280;5025;48.890;9.278;2023-03-07T14:44:29;97198.63;;;5.91;44.63
9969;BME280;5025;48.890;9.278;2023-03-07T14:47:17;97210.72;;;5.93;44.54
9969;BME280;5025;48.890;9.278;2023-03-07T14:50:16;97188.22;;;5.95;44.29
9969;BME280;5025;48.890;9.278;2023-03-07T14:52:43;97189.09;;;5.83;43.93
9969;BME280;5025;48.890;9.278;2023-03-07T14:55:18;97186.50;;;5.88;44.26
9969;BME280;5025;48.890;9.278;2023-03-07T14:57:46;97176.50;;;5.84;43.93
9969;BME280;5025;48.890;9.278;2023-03-07T15:02:50;97172.53;;;5.86;43.51
9969;BME280;5025;48.890;9.278;2023-03-07T15:05:25;97181.75;;;5.90;44.05
9969;BME280;5025;48.890;9.278;2023-03-07T15:07:50;97173.22;;;5.93;44.14
9969;BME280;5025;48.890;9.278;2023-03-07T15:10:22;97183.94;;;5.93;43.75
9969;BME280;5025;48.890;9.278;2023-03-07T15:12:52;97180.25;;;5.83;43.73
9969;BME280;5025;48.890;9.278;2023-03-07T15:15:44;97170.19;;;6.02;43.59
9969;BME280;5025;48.890;9.278;2023-03-07T15:18:18;97161.47;;;6.23;43.56
9969;BME280;5025;48.890;9.278;2023-03-07T15:20:46;97169.63;;;6.79;42.59
9969;BME280;5025;48.890;9.278;2023-03-07T15:23:23;97204.22;;;7.49;41.12
9969;BME280;5025;48.890;9.278;2023-03-07T15:25:54;97187.16;;;7.60;40.12
9969;BME280;5025;48.890;9.278;2023-03-07T15:28:23;97182.09;;;7.42;40.42
9969;BME280;5025;48.890;9.278;2023-03-07T15:30:51;97178.06;;;7.22;41.01
9969;BME280;5025;48.890;9.278;2023-03-07T15:35:43;97176.72;;;6.86;41.78
9969;BME280;5025;48.890;9.278;2023-03-07T15:38:15;97180.47;;;6.51;42.86
9969;BME280;5025;48.890;9.278;2023-03-07T15:40:43;97178.16;;;6.42;43.14
9969;BME280;5025;48.890;9.278;2023-03-07T15:43:21;97169.13;;;6.32;43.41
9969;BME280;5025;48.890;9.278;2023-03-07T15:46:05;97170.66;;;6.27;43.80
9969;BME280;5025;48.890;9.278;2023-03-07T15:48:47;97178.72;;;6.27;44.02
9969;BME280;5025;48.890;9.278;2023-03-07T15:51:17;97167.00;;;6.17;44.32
9969;BME280;5025;48.890;9.278;2023-03-07T15:53:43;97172.34;;;6.17;44.57